Time;durP1;ratioP1;P1;durP2;ratioP2;P2;SDS_P1;SDS_P2;PMS_P1;PMS_P2;Temp;Humidity;BMP_temperature;BMP_pressure;BME280_temperature;BME280_humidity;BME280_pressure;Samples;Min_cycle;Max_cycle;Signal;HPM_P1;HPM_P2
2022/12/05 00:00:33;;;;;;;;;;;17.30;43.50;;;;;;5059635;28;1248;-69
2022/12/05 00:03:02;;;;;;;;;;;17.30;43.50;;;;;;5037629;28;1957;-69
2022/12/05 00:05:28;;;;;;;;;;;17.30;43.60;;;;;;5061469;28;915;-69
2022/12/05 00:07:53;;;;;;;;;;;17.30;43.70;;;;;;5056783;28;982;-69
2022/12/05 00:10:18;;;;;;;;;;;17.20;43.60;;;;;;5052900;28;1271;-69
2022/12/05 00:12:44;;;;;;;;;;;17.20;43.70;;;;;;5061419;28;855;-69
2022/12/05 00:15:11;;;;;;;;;;;17.20;43.80;;;;;;5035024;28;859;-69
2022/12/05 00:17:38;;;;;;;;;;;17.20;43.70;;;;;;5064526;28;871;-69
2022/12/05 00:20:04;;;;;;;;;;;17.20;43.80;;;;;;5055116;28;1341;-69
2022/12/05 00:22:29;;;;;;;;;;;17.20;43.80;;;;;;5056932;28;1953;-69
2022/12/05 00:24:55;;;;;;;;;;;17.20;43.80;;;;;;5071108;28;991;-69
2022/12/05 00:27:20;;;;;;;;;;;17.10;43.80;;;;;;5061978;28;777;-69
2022/12/05 00:29:46;;;;;;;;;;;17.10;43.90;;;;;;5052643;28;1208;-69
2022/12/05 00:32:11;;;;;;;;;;;17.10;43.90;;;;;;5057681;28;793;-69
2022/12/05 00:34:36;;;;;;;;;;;17.10;44.00;;;;;;5072097;28;836;-69
2022/12/05 00:37:02;;;;;;;;;;;17.10;43.90;;;;;;5059957;28;919;-69
2022/12/05 00:39:27;;;;;;;;;;;17.10;44.00;;;;;;5064100;28;1254;-69
2022/12/05 00:41:53;;;;;;;;;;;17.10;44.00;;;;;;5050719;28;1906;-69
2022/12/05 00:44:18;;;;;;;;;;;17.10;44.10;;;;;;5055793;28;772;-69
2022/12/05 00:46:44;;;;;;;;;;;17.10;44.10;;;;;;5048377;28;883;-69
2022/12/05 00:49:09;;;;;;;;;;;17.10;44.10;;;;;;5076766;28;1205;-69
2022/12/05 00:51:36;;;;;;;;;;;17.10;44.10;;;;;;5070677;28;1030;-69
2022/12/05 00:54:03;;;;;;;;;;;17.00;44.70;;;;;;5054284;28;895;-69
2022/12/05 00:56:28;;;;;;;;;;;17.00;44.20;;;;;;5056547;28;939;-69
2022/12/05 00:58:54;;;;;;;;;;;17.00;44.20;;;;;;5060770;28;1318;-69
2022/12/05 01:01:21;;;;;;;;;;;17.00;44.70;;;;;;5071178;28;863;-69
2022/12/05 01:03:46;;;;;;;;;;;17.00;44.20;;;;;;5043940;28;1965;-69
2022/12/05 01:06:12;;;;;;;;;;;17.00;44.20;;;;;;5053654;28;910;-69
2022/12/05 01:08:38;;;;;;;;;;;17.00;44.20;;;;;;5069024;28;1346;-69
2022/12/05 01:11:04;;;;;;;;;;;17.00;44.30;;;;;;5064544;28;832;-69
2022/12/05 01:13:29;;;;;;;;;;;17.00;44.30;;;;;;5073945;28;1383;-69
2022/12/05 01:15:55;;;;;;;;;;;17.00;44.30;;;;;;5039615;28;858;-69
2022/12/05 01:18:20;;;;;;;;;;;16.90;44.30;;;;;;5045481;28;948;-69
2022/12/05 01:20:46;;;;;;;;;;;16.90;44.50;;;;;;5065195;28;1263;-69
2022/12/05 01:23:11;;;;;;;;;;;16.90;44.50;;;;;;5043317;28;1902;-69
2022/12/05 01:25:43;;;;;;;;;;;17.00;44.60;;;;;;5055486;28;917;-69
2022/12/05 01:28:09;;;;;;;;;;;17.00;44.60;;;;;;5050119;28;847;-69
2022/12/05 01:30:41;;;;;;;;;;;17.00;44.50;;;;;;5068078;28;1338;-69
2022/12/05 01:33:07;;;;;;;;;;;17.00;44.50;;;;;;5062044;28;824;-69
2022/12/05 01:35:32;;;;;;;;;;;17.00;44.40;;;;;;5048577;28;990;-69
2022/12/05 01:37:58;;;;;;;;;;;17.10;44.30;;;;;;5068926;28;963;-69
2022/12/05 01:40:23;;;;;;;;;;;17.10;44.30;;;;;;5071704;28;1290;-69
2022/12/05 01:42:49;;;;;;;;;;;17.10;44.30;;;;;;5056476;28;1975;-69
2022/12/05 01:45:15;;;;;;;;;;;17.20;44.20;;;;;;5062122;28;835;-69
2022/12/05 01:47:40;;;;;;;;;;;17.20;44.10;;;;;;5068146;28;804;-69
2022/12/05 01:50:06;;;;;;;;;;;17.20;44.00;;;;;;5059042;28;1202;-69
2022/12/05 01:52:32;;;;;;;;;;;17.20;44.00;;;;;;5039383;28;907;-69
2022/12/05 01:54:59;;;;;;;;;;;17.20;43.90;;;;;;5044092;28;789;-69
2022/12/05 01:57:24;;;;;;;;;;;17.20;43.90;;;;;;5049303;28;941;-69
2022/12/05 01:59:50;;;;;;;;;;;17.20;43.90;;;;;;5056720;28;1335;-69
2022/12/05 02:02:16;;;;;;;;;;;17.20;43.90;;;;;;5071326;28;1898;-69
2022/12/05 02:04:47;;;;;;;;;;;17.20;44.00;;;;;;5044102;28;883;-69
2022/12/05 02:07:12;;;;;;;;;;;17.20;43.90;;;;;;5064401;28;1245;-69
2022/12/05 02:09:37;;;;;;;;;;;17.20;43.90;;;;;;5062893;28;1346;-69
2022/12/05 02:12:03;;;;;;;;;;;17.20;43.90;;;;;;5047390;28;895;-69
2022/12/05 02:14:32;;;;;;;;;;;17.20;44.00;;;;;;5070025;28;965;-69
2022/12/05 02:17:02;;;;;;;;;;;17.20;44.00;;;;;;5061527;28;975;-69
2022/12/05 02:19:36;;;;;;;;;;;17.20;44.00;;;;;;5041219;28;1369;-69
2022/12/05 02:22:11;;;;;;;;;;;17.20;44.10;;;;;;5062384;28;1902;-70
2022/12/05 02:24:55;;;;;;;;;;;17.20;44.10;;;;;;5065958;28;804;-69
2022/12/05 02:27:35;;;;;;;;;;;17.10;44.10;;;;;;5067725;28;1617;-69
2022/12/05 02:30:03;;;;;;;;;;;17.10;44.20;;;;;;5063745;28;1267;-69
2022/12/05 02:32:47;;;;;;;;;;;17.10;44.30;;;;;;5057750;28;1025;-69
2022/12/05 02:35:15;;;;;;;;;;;17.10;44.30;;;;;;5065020;28;785;-69
2022/12/05 02:37:51;;;;;;;;;;;17.10;44.30;;;;;;5048067;28;835;-69
2022/12/05 02:40:28;;;;;;;;;;;17.10;44.40;;;;;;5038820;28;1330;-69
2022/12/05 02:43:15;;;;;;;;;;;17.10;44.40;;;;;;5054417;28;1965;-69
2022/12/05 02:45:40;;;;;;;;;;;17.00;44.50;;;;;;5068069;28;863;-69
2022/12/05 02:48:06;;;;;;;;;;;17.00;44.50;;;;;;5045647;28;1030;-69
2022/12/05 02:50:32;;;;;;;;;;;17.00;44.50;;;;;;5040579;28;1248;-69
2022/12/05 02:52:59;;;;;;;;;;;17.00;44.50;;;;;;5050279;28;804;-69
2022/12/05 02:55:25;;;;;;;;;;;17.00;44.50;;;;;;5040485;28;1060;-69
2022/12/05 02:57:52;;;;;;;;;;;17.00;44.60;;;;;;5043778;28;855;-69
2022/12/05 03:00:18;;;;;;;;;;;17.00;44.70;;;;;;5047498;28;1238;-69
2022/12/05 03:02:43;;;;;;;;;;;17.00;44.70;;;;;;5066881;28;1894;-69
2022/12/05 03:05:28;;;;;;;;;;;17.00;44.70;;;;;;5067901;28;864;-69
2022/12/05 03:07:54;;;;;;;;;;;17.00;44.60;;;;;;5048321;28;918;-69
2022/12/05 03:10:20;;;;;;;;;;;17.10;44.70;;;;;;5044694;28;1276;-69
2022/12/05 03:12:48;;;;;;;;;;;17.10;44.60;;;;;;5040475;28;1410;-69
2022/12/05 03:15:17;;;;;;;;;;;17.10;44.50;;;;;;5045526;28;739;-69
2022/12/05 03:17:43;;;;;;;;;;;17.10;44.40;;;;;;5051937;28;1018;-69
2022/12/05 03:20:13;;;;;;;;;;;17.20;44.40;;;;;;5039932;28;1264;-69
2022/12/05 03:22:45;;;;;;;;;;;17.20;44.90;;;;;;5049926;28;1961;-69
2022/12/05 03:25:10;;;;;;;;;;;17.20;44.30;;;;;;5065037;28;847;-69
2022/12/05 03:27:51;;;;;;;;;;;17.20;44.30;;;;;;5066581;28;875;-69
2022/12/05 03:30:17;;;;;;;;;;;17.20;44.30;;;;;;5041145;28;1197;-69
2022/12/05 03:32:53;;;;;;;;;;;17.20;44.30;;;;;;5047228;28;1150;-69
2022/12/05 03:35:21;;;;;;;;;;;17.20;44.30;;;;;;5048630;28;837;-69
2022/12/05 03:37:49;;;;;;;;;;;17.20;44.30;;;;;;5061281;28;839;-69
2022/12/05 03:40:35;;;;;;;;;;;17.20;44.30;;;;;;5060543;28;1387;-69
2022/12/05 03:43:07;;;;;;;;;;;17.10;44.30;;;;;;5063809;28;1910;-69
2022/12/05 03:45:38;;;;;;;;;;;17.10;44.30;;;;;;5048247;28;859;-69
2022/12/05 03:48:05;;;;;;;;;;;17.10;44.30;;;;;;5066118;28;957;-69
2022/12/05 03:50:31;;;;;;;;;;;17.10;44.40;;;;;;5061635;28;1264;-69
2022/12/05 03:53:01;;;;;;;;;;;17.10;44.40;;;;;;5046941;28;896;-69
2022/12/05 03:55:27;;;;;;;;;;;17.10;44.40;;;;;;5040205;28;927;-69
2022/12/05 03:57:54;;;;;;;;;;;17.10;44.50;;;;;;5062391;28;792;-69
2022/12/05 04:00:20;;;;;;;;;;;17.00;44.50;;;;;;5041207;28;1260;-69
2022/12/05 04:02:50;;;;;;;;;;;17.00;44.50;;;;;;5041245;28;1973;-69
2022/12/05 04:05:20;;;;;;;;;;;17.00;45.10;;;;;;5042284;28;999;-69
2022/12/05 04:07:46;;;;;;;;;;;17.00;44.60;;;;;;5042040;28;794;-69
2022/12/05 04:10:13;;;;;;;;;;;17.00;44.60;;;;;;5045445;28;1357;-69
2022/12/05 04:12:38;;;;;;;;;;;17.00;44.60;;;;;;5039945;28;1016;-69
2022/12/05 04:15:08;;;;;;;;;;;17.00;44.60;;;;;;5051382;28;950;-69
2022/12/05 04:17:36;;;;;;;;;;;16.90;44.60;;;;;;5048850;28;789;-69
2022/12/05 04:22:52;;;;;;;;;;;16.90;44.70;;;;;;5063233;28;1965;-69
2022/12/05 04:25:33;;;;;;;;;;;16.90;44.70;;;;;;5043863;28;1136;-69
2022/12/05 04:28:05;;;;;;;;;;;16.90;44.70;;;;;;5049674;28;962;-70
2022/12/05 04:30:35;;;;;;;;;;;16.90;44.80;;;;;;5045227;28;1262;-69
2022/12/05 04:33:08;;;;;;;;;;;17.00;44.70;;;;;;5042182;28;958;-69
2022/12/05 04:35:35;;;;;;;;;;;17.00;44.70;;;;;;5030949;28;1324;-69
2022/12/05 04:38:09;;;;;;;;;;;17.00;44.60;;;;;;5042284;28;819;-69
2022/12/05 04:40:38;;;;;;;;;;;17.00;44.60;;;;;;5040003;28;1324;-69
2022/12/05 04:43:04;;;;;;;;;;;17.10;44.60;;;;;;5029049;28;1926;-69
2022/12/05 04:45:29;;;;;;;;;;;17.00;44.50;;;;;;5059249;28;1058;-69
2022/12/05 04:47:56;;;;;;;;;;;17.10;44.50;;;;;;5040574;28;804;-69
2022/12/05 04:50:22;;;;;;;;;;;17.10;44.40;;;;;;5061772;28;1771;-70
2022/12/05 04:52:48;;;;;;;;;;;17.10;44.40;;;;;;5038220;28;893;-69
2022/12/05 04:55:24;;;;;;;;;;;17.10;44.30;;;;;;5047521;28;947;-69
2022/12/05 04:57:53;;;;;;;;;;;17.10;44.40;;;;;;5045695;28;807;-69
2022/12/05 05:00:18;;;;;;;;;;;17.10;44.40;;;;;;5061465;28;2084;-69
2022/12/05 05:02:49;;;;;;;;;;;17.10;44.40;;;;;;5049891;28;1965;-69
2022/12/05 05:05:15;;;;;;;;;;;17.10;44.40;;;;;;5036985;28;883;-69
2022/12/05 05:07:44;;;;;;;;;;;17.10;44.40;;;;;;5043643;28;891;-69
2022/12/05 05:10:10;;;;;;;;;;;17.10;44.40;;;;;;5056010;28;1251;-69
2022/12/05 05:12:35;;;;;;;;;;;17.10;44.50;;;;;;5047820;28;1076;-69
2022/12/05 05:15:01;;;;;;;;;;;17.20;44.50;;;;;;5065485;28;1304;-69
2022/12/05 05:17:26;;;;;;;;;;;17.30;44.40;;;;;;5060027;28;922;-69
2022/12/05 05:20:22;;;;;;;;;;;17.40;44.30;;;;;;5059714;28;1278;-69
2022/12/05 05:22:37;;;;;;;;;;;17.50;44.30;;;;;;5057350;28;1902;-69
2022/12/05 05:25:03;;;;;;;;;;;17.60;44.10;;;;;;5060219;28;981;-69
2022/12/05 05:27:28;;;;;;;;;;;17.70;44.00;;;;;;5064032;28;867;-69
2022/12/05 05:29:54;;;;;;;;;;;17.80;43.80;;;;;;5060854;28;1272;-69
2022/12/05 05:32:19;;;;;;;;;;;17.90;43.50;;;;;;5060670;28;879;-69
2022/12/05 05:34:44;;;;;;;;;;;18.00;43.30;;;;;;5058135;28;800;-69
2022/12/05 05:37:10;;;;;;;;;;;18.10;43.20;;;;;;5064900;28;939;-69
2022/12/05 05:39:35;;;;;;;;;;;18.20;43.00;;;;;;5062362;28;1280;-69
2022/12/05 05:42:01;;;;;;;;;;;18.30;42.70;;;;;;5069638;28;1919;-69
2022/12/05 05:44:26;;;;;;;;;;;18.30;42.50;;;;;;5063686;28;895;-69
2022/12/05 05:46:52;;;;;;;;;;;18.40;42.40;;;;;;5063492;28;879;-70
2022/12/05 05:49:17;;;;;;;;;;;18.50;42.30;;;;;;5062174;28;1357;-70
2022/12/05 05:51:43;;;;;;;;;;;18.50;42.10;;;;;;5060874;28;892;-70
2022/12/05 05:54:08;;;;;;;;;;;18.60;41.90;;;;;;5070267;28;791;-70
2022/12/05 05:56:34;;;;;;;;;;;18.60;41.90;;;;;;5073013;28;824;-71
2022/12/05 05:59:00;;;;;;;;;;;18.60;41.80;;;;;;5055330;28;1276;-71
2022/12/05 06:01:25;;;;;;;;;;;18.70;41.80;;;;;;5037768;28;836;-71
2022/12/05 06:03:51;;;;;;;;;;;18.80;41.80;;;;;;5064852;28;1906;-71
2022/12/05 06:06:16;;;;;;;;;;;18.90;41.80;;;;;;5063933;28;781;-71
2022/12/05 06:08:42;;;;;;;;;;;18.90;41.80;;;;;;5065056;28;1468;-69
2022/12/05 06:11:08;;;;;;;;;;;19.00;41.90;;;;;;5058267;28;1527;-70
2022/12/05 06:13:34;;;;;;;;;;;19.10;41.90;;;;;;5043389;28;1478;-69
2022/12/05 06:15:59;;;;;;;;;;;19.20;41.90;;;;;;5052468;28;995;-70
2022/12/05 06:18:25;;;;;;;;;;;19.30;41.90;;;;;;5063845;28;893;-68
2022/12/05 06:20:56;;;;;;;;;;;19.40;42.00;;;;;;5061349;28;1538;-68
2022/12/05 06:23:22;;;;;;;;;;;19.40;42.00;;;;;;5060256;28;1886;-68
2022/12/05 06:25:48;;;;;;;;;;;19.50;42.10;;;;;;5060936;28;2232;-68
2022/12/05 06:28:14;;;;;;;;;;;19.60;42.20;;;;;;5064837;28;1445;-68
2022/12/05 06:30:39;;;;;;;;;;;19.60;42.20;;;;;;5067681;28;1280;-69
2022/12/05 06:33:04;;;;;;;;;;;19.70;42.30;;;;;;5042837;28;835;-69
2022/12/05 06:35:30;;;;;;;;;;;19.70;42.30;;;;;;5058084;28;1198;-68
2022/12/05 06:37:55;;;;;;;;;;;19.70;42.30;;;;;;5060189;28;888;-69
2022/12/05 06:40:21;;;;;;;;;;;19.80;42.40;;;;;;5058255;28;1294;-69
2022/12/05 06:42:46;;;;;;;;;;;19.80;42.50;;;;;;5061041;28;1967;-66
2022/12/05 06:45:12;;;;;;;;;;;19.90;42.50;;;;;;5061527;28;941;-66
2022/12/05 06:47:37;;;;;;;;;;;19.90;42.60;;;;;;5057976;28;896;-68
2022/12/05 06:50:03;;;;;;;;;;;20.00;42.70;;;;;;5061732;28;1290;-68
2022/12/05 06:52:28;;;;;;;;;;;20.00;42.70;;;;;;5056581;28;808;-68
2022/12/05 06:54:54;;;;;;;;;;;20.00;42.80;;;;;;5060255;28;998;-68
2022/12/05 06:57:19;;;;;;;;;;;20.00;42.80;;;;;;5042759;28;4210;-70
2022/12/05 06:59:45;;;;;;;;;;;20.10;42.90;;;;;;5066191;28;3366;-69
2022/12/05 07:02:11;;;;;;;;;;;20.10;43.00;;;;;;5062537;28;1972;-69
2022/12/05 07:04:36;;;;;;;;;;;20.10;43.00;;;;;;5057113;28;887;-68
2022/12/05 07:07:02;;;;;;;;;;;20.20;43.10;;;;;;5061206;28;863;-69
2022/12/05 07:09:47;;;;;;;;;;;20.20;43.10;;;;;;5060441;28;1271;-68
2022/12/05 07:12:13;;;;;;;;;;;20.20;43.20;;;;;;5044998;28;938;-68
2022/12/05 07:14:38;;;;;;;;;;;20.20;43.20;;;;;;5038896;28;1291;-69
2022/12/05 07:17:04;;;;;;;;;;;20.30;43.40;;;;;;5061796;28;772;-69
2022/12/05 07:19:29;;;;;;;;;;;20.30;43.40;;;;;;5041121;28;1363;-66
2022/12/05 07:21:54;;;;;;;;;;;20.30;43.40;;;;;;5057650;28;1045;-66
2022/12/05 07:24:20;;;;;;;;;;;20.30;43.50;;;;;;5057741;28;1882;-68
2022/12/05 07:26:45;;;;;;;;;;;20.40;43.50;;;;;;5060409;28;1276;-66
2022/12/05 07:29:11;;;;;;;;;;;20.40;43.60;;;;;;5060531;28;1345;-66
2022/12/05 07:31:36;;;;;;;;;;;20.40;43.70;;;;;;5056497;28;1855;-67
2022/12/05 07:34:02;;;;;;;;;;;20.40;43.70;;;;;;5038441;28;847;-67
2022/12/05 07:36:27;;;;;;;;;;;20.40;43.70;;;;;;5041216;28;903;-68
2022/12/05 07:38:53;;;;;;;;;;;20.40;43.80;;;;;;5060691;28;1212;-68
2022/12/05 07:41:20;;;;;;;;;;;20.40;43.90;;;;;;5058382;28;879;-67
2022/12/05 07:43:46;;;;;;;;;;;20.40;44.00;;;;;;5056921;28;1979;-68
2022/12/05 07:46:11;;;;;;;;;;;20.40;44.00;;;;;;5058424;28;1482;-68
2022/12/05 07:48:37;;;;;;;;;;;20.40;44.10;;;;;;5044866;28;1264;-68
2022/12/05 07:51:03;;;;;;;;;;;20.40;44.20;;;;;;5058291;28;1070;-68
2022/12/05 07:53:28;;;;;;;;;;;20.40;44.70;;;;;;5046278;28;1359;-68
2022/12/05 07:55:54;;;;;;;;;;;20.40;44.70;;;;;;5061939;28;1375;-67
2022/12/05 07:58:19;;;;;;;;;;;20.40;44.70;;;;;;5061913;28;1278;-69
2022/12/05 08:00:45;;;;;;;;;;;20.40;45.10;;;;;;5057866;28;1263;-68
2022/12/05 08:03:10;;;;;;;;;;;20.40;45.30;;;;;;5058855;28;1902;-68
2022/12/05 08:05:36;;;;;;;;;;;20.50;45.40;;;;;;5061409;28;1287;-71
2022/12/05 08:08:02;;;;;;;;;;;20.50;45.40;;;;;;5061925;28;911;-69
2022/12/05 08:10:27;;;;;;;;;;;20.60;45.50;;;;;;5050678;28;1201;-69
2022/12/05 08:12:53;;;;;;;;;;;20.60;45.60;;;;;;5060048;28;1427;-68
2022/12/05 08:15:18;;;;;;;;;;;20.60;45.70;;;;;;5058062;28;1264;-69
2022/12/05 08:17:43;;;;;;;;;;;20.60;45.70;;;;;;5025410;28;1662;-68
2022/12/05 08:20:09;;;;;;;;;;;20.70;45.80;;;;;;5059126;28;1303;-68
2022/12/05 08:22:35;;;;;;;;;;;20.70;45.90;;;;;;5058271;28;2024;-68
2022/12/05 08:25:00;;;;;;;;;;;20.70;45.90;;;;;;5063314;28;1295;-69
2022/12/05 08:27:26;;;;;;;;;;;20.70;46.00;;;;;;5062709;28;1986;-68
2022/12/05 08:29:52;;;;;;;;;;;20.70;46.10;;;;;;5066809;28;1290;-69
2022/12/05 08:32:18;;;;;;;;;;;20.70;46.30;;;;;;5052770;28;1351;-68
2022/12/05 08:34:43;;;;;;;;;;;20.70;46.40;;;;;;5058669;28;938;-69
2022/12/05 08:37:09;;;;;;;;;;;20.70;46.50;;;;;;5057785;28;926;-69
2022/12/05 08:39:35;;;;;;;;;;;20.70;46.60;;;;;;5061878;28;1260;-69
2022/12/05 08:42:01;;;;;;;;;;;20.70;46.80;;;;;;5060902;28;1961;-69
2022/12/05 08:44:29;;;;;;;;;;;20.70;46.90;;;;;;5065087;28;923;-68
2022/12/05 08:46:54;;;;;;;;;;;20.70;47.10;;;;;;5056739;28;871;-68
2022/12/05 08:49:20;;;;;;;;;;;20.70;47.20;;;;;;5060435;28;1362;-69
2022/12/05 08:51:45;;;;;;;;;;;20.70;47.30;;;;;;5058492;28;867;-69
2022/12/05 08:54:11;;;;;;;;;;;20.70;47.40;;;;;;5066958;28;879;-68
2022/12/05 08:56:37;;;;;;;;;;;20.70;47.60;;;;;;5053859;28;895;-68
2022/12/05 08:59:03;;;;;;;;;;;20.60;47.70;;;;;;5058807;28;1276;-68
2022/12/05 09:01:32;;;;;;;;;;;20.60;47.80;;;;;;5057993;28;1887;-69
2022/12/05 09:03:59;;;;;;;;;;;20.60;47.90;;;;;;5063589;28;1894;-68
2022/12/05 09:06:24;;;;;;;;;;;20.60;48.10;;;;;;5063943;28;1345;-69
2022/12/05 09:08:53;;;;;;;;;;;20.60;48.10;;;;;;5050710;28;1659;-69
2022/12/05 09:11:20;;;;;;;;;;;20.60;48.20;;;;;;5064157;28;933;-69
2022/12/05 09:13:46;;;;;;;;;;;20.60;48.40;;;;;;5041176;28;836;-69
2022/12/05 09:16:12;;;;;;;;;;;20.50;48.40;;;;;;5045260;28;812;-69
2022/12/05 09:18:37;;;;;;;;;;;20.50;48.70;;;;;;5063879;28;1252;-69
2022/12/05 09:21:10;;;;;;;;;;;20.50;48.80;;;;;;5062317;28;895;-69
2022/12/05 09:23:35;;;;;;;;;;;20.50;48.90;;;;;;5042424;28;1886;-69
2022/12/05 09:26:01;;;;;;;;;;;20.50;49.10;;;;;;5048087;28;1005;-69
2022/12/05 09:28:27;;;;;;;;;;;20.40;49.20;;;;;;5059889;28;870;-69
2022/12/05 09:30:56;;;;;;;;;;;20.40;49.30;;;;;;5044730;28;1286;-69
2022/12/05 09:33:22;;;;;;;;;;;20.40;49.40;;;;;;5064733;28;846;-69
2022/12/05 09:35:47;;;;;;;;;;;20.30;49.50;;;;;;5061324;28;792;-69
2022/12/05 09:38:13;;;;;;;;;;;20.40;49.70;;;;;;5066805;28;796;-69
2022/12/05 09:40:41;;;;;;;;;;;20.40;49.80;;;;;;5058615;28;1388;-69
2022/12/05 09:43:07;;;;;;;;;;;20.30;49.80;;;;;;5061001;28;1973;-69
2022/12/05 09:45:36;;;;;;;;;;;20.30;50.00;;;;;;5042356;28;893;-69
2022/12/05 09:48:06;;;;;;;;;;;20.30;50.10;;;;;;5042763;28;848;-69
2022/12/05 09:50:40;;;;;;;;;;;20.30;50.40;;;;;;5042879;28;1293;-69
2022/12/05 09:53:09;;;;;;;;;;;20.20;50.40;;;;;;5054663;28;836;-68
2022/12/05 09:55:42;;;;;;;;;;;20.20;50.60;;;;;;5042446;28;2122;-69
2022/12/05 09:58:16;;;;;;;;;;;20.20;50.90;;;;;;5045789;28;1457;-70
2022/12/05 10:00:41;;;;;;;;;;;20.20;50.90;;;;;;5053927;28;1433;-70
2022/12/05 10:03:27;;;;;;;;;;;20.10;51.00;;;;;;5060572;28;1906;-68
2022/12/05 10:06:13;;;;;;;;;;;20.10;51.10;;;;;;5042641;28;888;-69
2022/12/05 10:08:57;;;;;;;;;;;20.10;51.10;;;;;;5034466;28;2100;-69
2022/12/05 10:11:33;;;;;;;;;;;20.10;51.30;;;;;;5061202;28;2110;-70
2022/12/05 10:14:07;;;;;;;;;;;20.10;51.30;;;;;;5051927;28;1363;-68
2022/12/05 10:16:34;;;;;;;;;;;20.00;51.40;;;;;;5039869;28;1362;-70
2022/12/05 10:19:21;;;;;;;;;;;20.10;51.40;;;;;;5062554;28;1254;-71
2022/12/05 10:22:12;;;;;;;;;;;20.10;51.60;;;;;;5053144;28;800;-71
2022/12/05 10:24:51;;;;;;;;;;;20.10;51.70;;;;;;5062899;28;1167;-68
2022/12/05 10:27:20;;;;;;;;;;;20.00;51.80;;;;;;5061649;28;1418;-68
2022/12/05 10:29:48;;;;;;;;;;;20.00;51.80;;;;;;5044063;28;1272;-68
2022/12/05 10:32:33;;;;;;;;;;;20.10;51.90;;;;;;5044672;28;1065;-68
2022/12/05 10:34:59;;;;;;;;;;;20.00;51.80;;;;;;5060313;28;837;-68
2022/12/05 10:37:24;;;;;;;;;;;20.00;51.90;;;;;;5041699;28;869;-69
2022/12/05 10:39:50;;;;;;;;;;;20.00;51.90;;;;;;5049838;28;1345;-69
2022/12/05 10:42:21;;;;;;;;;;;20.00;52.00;;;;;;5044868;28;1934;-69
2022/12/05 10:44:46;;;;;;;;;;;20.00;52.10;;;;;;5065141;28;919;-69
2022/12/05 10:47:12;;;;;;;;;;;20.00;52.10;;;;;;5041645;28;855;-69
2022/12/05 10:49:37;;;;;;;;;;;20.00;52.20;;;;;;5064433;28;1366;-69
2022/12/05 10:52:03;;;;;;;;;;;20.00;52.20;;;;;;5038752;28;856;-69
2022/12/05 10:54:29;;;;;;;;;;;19.90;52.20;;;;;;5051988;28;866;-69
2022/12/05 10:56:54;;;;;;;;;;;19.90;52.40;;;;;;5040647;28;884;-69
2022/12/05 10:59:24;;;;;;;;;;;19.90;52.40;;;;;;5030453;28;1608;-68
2022/12/05 11:01:50;;;;;;;;;;;19.90;52.40;;;;;;5062004;28;812;-69
2022/12/05 11:04:20;;;;;;;;;;;19.90;52.50;;;;;;5053544;28;1953;-68
2022/12/05 11:06:50;;;;;;;;;;;19.90;52.70;;;;;;5043499;28;844;-68
2022/12/05 11:09:26;;;;;;;;;;;19.90;52.80;;;;;;5055982;28;1280;-68
2022/12/05 11:12:10;;;;;;;;;;;19.90;52.80;;;;;;5063904;28;820;-69
2022/12/05 11:14:35;;;;;;;;;;;19.90;52.90;;;;;;5058834;28;996;-69
2022/12/05 11:17:01;;;;;;;;;;;19.90;52.90;;;;;;5069269;28;1905;-69
2022/12/05 11:19:29;;;;;;;;;;;19.90;52.80;;;;;;5061247;28;1419;-69
2022/12/05 11:21:55;;;;;;;;;;;19.90;52.70;;;;;;5060388;28;2072;-69
2022/12/05 11:24:22;;;;;;;;;;;19.90;52.50;;;;;;5058423;28;2008;-68
2022/12/05 11:26:48;;;;;;;;;;;19.90;52.80;;;;;;5035647;28;1640;-68
2022/12/05 11:29:28;;;;;;;;;;;19.90;53.10;;;;;;5016040;28;1686;-68
2022/12/05 11:31:54;;;;;;;;;;;19.90;52.80;;;;;;5050695;28;1403;-68
2022/12/05 11:34:23;;;;;;;;;;;19.90;52.90;;;;;;5052892;28;1455;-68
2022/12/05 11:36:50;;;;;;;;;;;19.90;52.80;;;;;;5030661;28;1485;-68
2022/12/05 11:39:15;;;;;;;;;;;19.90;52.80;;;;;;5041448;28;1277;-68
2022/12/05 11:41:44;;;;;;;;;;;19.90;52.80;;;;;;5039898;28;994;-68
2022/12/05 11:44:22;;;;;;;;;;;19.90;52.90;;;;;;5057422;28;1952;-68
2022/12/05 11:47:08;;;;;;;;;;;19.90;52.90;;;;;;5039449;28;1074;-68
2022/12/05 11:49:33;;;;;;;;;;;19.90;53.00;;;;;;5046930;28;1337;-68
2022/12/05 11:52:01;;;;;;;;;;;19.80;53.00;;;;;;5059222;28;1534;-69
2022/12/05 11:54:45;;;;;;;;;;;19.90;53.20;;;;;;5056790;28;1054;-68
2022/12/05 11:57:15;;;;;;;;;;;19.90;53.30;;;;;;5056655;28;959;-68
2022/12/05 11:59:50;;;;;;;;;;;19.90;53.40;;;;;;5040331;28;1298;-68
2022/12/05 12:02:27;;;;;;;;;;;19.80;53.40;;;;;;5030290;28;2072;-68
2022/12/05 12:05:02;;;;;;;;;;;19.80;53.40;;;;;;5053684;28;937;-70
2022/12/05 12:07:33;;;;;;;;;;;19.80;53.50;;;;;;5038491;28;975;-68
2022/12/05 12:10:17;;;;;;;;;;;19.80;53.50;;;;;;5057406;28;1251;-68
2022/12/05 12:12:54;;;;;;;;;;;19.80;53.50;;;;;;5058217;28;1270;-68
2022/12/05 12:15:38;;;;;;;;;;;19.80;53.50;;;;;;5037682;28;1278;-69
2022/12/05 12:18:04;;;;;;;;;;;19.80;53.60;;;;;;5053772;28;813;-70
2022/12/05 12:20:48;;;;;;;;;;;19.80;53.60;;;;;;5054940;28;1327;-69
2022/12/05 12:23:16;;;;;;;;;;;19.80;53.60;;;;;;5059907;28;1894;-71
2022/12/05 12:25:56;;;;;;;;;;;19.80;53.70;;;;;;5047854;28;2030;-71
2022/12/05 12:28:21;;;;;;;;;;;19.80;53.70;;;;;;5024812;28;1173;-71
2022/12/05 12:30:59;;;;;;;;;;;19.80;53.90;;;;;;5055606;28;1343;-71
2022/12/05 12:33:40;;;;;;;;;;;19.80;54.10;;;;;;5060491;28;871;-71
2022/12/05 12:36:05;;;;;;;;;;;19.80;54.10;;;;;;5037568;28;965;-70
2022/12/05 12:38:43;;;;;;;;;;;19.80;53.90;;;;;;5055606;28;881;-70
2022/12/05 12:41:13;;;;;;;;;;;19.80;53.90;;;;;;5057418;28;861;-69
2022/12/05 12:44:00;;;;;;;;;;;19.80;54.00;;;;;;5036151;28;1906;-69
2022/12/05 12:46:29;;;;;;;;;;;19.80;54.10;;;;;;5028107;28;1541;-71
2022/12/05 12:49:01;;;;;;;;;;;19.70;54.00;;;;;;5057689;28;1338;-71
2022/12/05 12:51:28;;;;;;;;;;;19.80;54.10;;;;;;5028532;28;1283;-71
2022/12/05 12:53:57;;;;;;;;;;;19.80;54.10;;;;;;5030290;28;1151;-71
2022/12/05 12:56:35;;;;;;;;;;;19.80;54.10;;;;;;5058890;28;824;-70
2022/12/05 12:59:04;;;;;;;;;;;19.80;54.10;;;;;;5045067;28;1394;-71
2022/12/05 13:01:29;;;;;;;;;;;19.80;54.10;;;;;;5061735;28;815;-70
2022/12/05 13:04:01;;;;;;;;;;;19.80;54.30;;;;;;5055778;28;1969;-70
2022/12/05 13:06:27;;;;;;;;;;;19.70;54.30;;;;;;5048288;28;923;-70
2022/12/05 13:08:54;;;;;;;;;;;19.70;54.10;;;;;;5067196;28;1341;-70
2022/12/05 13:11:19;;;;;;;;;;;19.60;54.00;;;;;;5042444;28;887;-70
2022/12/05 13:13:46;;;;;;;;;;;19.60;54.00;;;;;;5040398;28;1294;-69
2022/12/05 13:16:12;;;;;;;;;;;19.60;54.00;;;;;;5040403;28;1163;-69
2022/12/05 13:18:37;;;;;;;;;;;19.50;54.00;;;;;;5049890;28;1608;-71
2022/12/05 13:21:04;;;;;;;;;;;19.50;54.00;;;;;;5039831;28;1045;-71
2022/12/05 13:23:31;;;;;;;;;;;19.50;54.00;;;;;;5045704;28;1908;-72
2022/12/05 13:25:56;;;;;;;;;;;19.50;54.00;;;;;;5048391;28;946;-71
2022/12/05 13:28:25;;;;;;;;;;;19.50;54.00;;;;;;5054133;28;855;-71
2022/12/05 13:30:56;;;;;;;;;;;19.40;53.90;;;;;;5065776;28;1267;-71
2022/12/05 13:33:24;;;;;;;;;;;19.40;53.90;;;;;;5055693;28;1034;-71
2022/12/05 13:44:11;;;;;;;;;;;19.40;53.90;;;;;;5050506;28;1969;-70
2022/12/05 13:46:37;;;;;;;;;;;19.40;53.90;;;;;;5066523;28;807;-70
2022/12/05 13:49:23;;;;;;;;;;;19.30;53.80;;;;;;5048916;28;1267;-71
2022/12/05 13:51:49;;;;;;;;;;;19.30;53.90;;;;;;5028135;28;1109;-70
2022/12/05 13:54:15;;;;;;;;;;;19.30;53.90;;;;;;5058493;28;967;-70
2022/12/05 13:56:46;;;;;;;;;;;19.30;53.90;;;;;;5059558;28;1130;-70
2022/12/05 13:59:11;;;;;;;;;;;19.30;53.90;;;;;;5070160;28;1266;-70
2022/12/05 14:01:41;;;;;;;;;;;19.30;53.90;;;;;;5057053;28;1046;-70
2022/12/05 14:04:20;;;;;;;;;;;19.30;53.90;;;;;;5042776;28;1922;-71
2022/12/05 14:06:46;;;;;;;;;;;19.30;53.90;;;;;;5059367;28;886;-69
2022/12/05 14:09:17;;;;;;;;;;;19.30;53.90;;;;;;5060154;28;1366;-70
2022/12/05 14:12:02;;;;;;;;;;;19.20;53.80;;;;;;5064162;28;915;-70
2022/12/05 14:14:45;;;;;;;;;;;19.30;53.90;;;;;;5065883;28;2198;-70
2022/12/05 14:17:11;;;;;;;;;;;19.20;53.80;;;;;;5078134;28;1257;-70
2022/12/05 14:19:41;;;;;;;;;;;19.20;53.80;;;;;;5094967;28;1220;-70
2022/12/05 14:22:30;;;;;;;;;;;19.20;53.80;;;;;;5072488;28;942;-70
2022/12/05 14:25:14;;;;;;;;;;;19.20;53.80;;;;;;5037052;28;1324;-70
2022/12/05 14:27:45;;;;;;;;;;;19.20;53.80;;;;;;5074772;28;1178;-70
2022/12/05 14:30:21;;;;;;;;;;;19.20;53.80;;;;;;5041993;28;1245;-70
2022/12/05 14:32:47;;;;;;;;;;;19.20;53.80;;;;;;5050175;28;966;-70
2022/12/05 14:35:16;;;;;;;;;;;19.20;53.80;;;;;;5037061;28;820;-70
2022/12/05 14:37:42;;;;;;;;;;;19.20;53.80;;;;;;5040579;28;1509;-70
2022/12/05 14:40:19;;;;;;;;;;;19.20;53.80;;;;;;5050392;28;1330;-70
2022/12/05 14:42:58;;;;;;;;;;;19.20;53.80;;;;;;5040598;28;1969;-70
2022/12/05 14:45:26;;;;;;;;;;;19.20;53.80;;;;;;5052882;28;853;-71
2022/12/05 14:47:52;;;;;;;;;;;19.20;53.80;;;;;;5049960;28;1185;-70
2022/12/05 14:50:22;;;;;;;;;;;19.10;53.80;;;;;;5056508;28;1279;-70
2022/12/05 14:53:08;;;;;;;;;;;19.10;53.80;;;;;;5068249;28;912;-71
2022/12/05 14:55:34;;;;;;;;;;;19.10;53.80;;;;;;5063355;28;1155;-69